Time;durP1;ratioP1;P1;durP2;ratioP2;P2;SDS_P1;SDS_P2;PMS_P1;PMS_P2;Temp;Humidity;BMP_temperature;BMP_pressure;BME280_temperature;BME280_humidity;BME280_pressure;Samples;Min_cycle;Max_cycle;Signal;HPM_P1;HPM_P2
2022/09/28 00:00:47;;;;;;;2.63;1.27;;;7.60;78.00;;;;;;4106714;28;20058;-83
2022/09/28 00:02:48;;;;;;;2.03;1.08;;;7.70;78.00;;;;;;4122067;28;20045;-83
2022/09/28 00:04:49;;;;;;;2.05;1.30;;;7.70;78.00;;;;;;4122532;28;20049;-84
2022/09/28 00:06:49;;;;;;;8.82;1.40;;;7.60;77.80;;;;;;4119010;28;20038;-84
2022/09/28 00:08:51;;;;;;;2.15;1.23;;;7.60;77.70;;;;;;4102410;28;20598;-84
2022/09/28 00:10:56;;;;;;;5.35;1.10;;;7.60;77.70;;;;;;4119412;28;20029;-83
2022/09/28 00:12:59;;;;;;;2.45;1.08;;;7.60;77.70;;;;;;4122302;28;20424;-83
2022/09/28 00:15:00;;;;;;;4.03;1.27;;;7.50;77.60;;;;;;4115235;28;20035;-83
2022/09/28 00:17:00;;;;;;;3.00;1.20;;;7.50;77.60;;;;;;4100396;28;20081;-83
2022/09/28 00:19:02;;;;;;;1.65;1.00;;;7.60;77.60;;;;;;4101950;28;20063;-83
2022/09/28 00:21:14;;;;;;;4.47;1.27;;;7.50;77.50;;;;;;4120221;28;20097;-84
2022/09/28 00:23:15;;;;;;;4.72;1.08;;;7.50;77.50;;;;;;4118062;28;20030;-84
2022/09/28 00:25:16;;;;;;;2.13;1.27;;;7.50;77.50;;;;;;4166373;23;20042;-82
2022/09/28 00:27:16;;;;;;;2.13;1.20;;;7.50;77.40;;;;;;4127573;28;20058;-82
2022/09/28 00:29:23;;;;;;;5.82;1.25;;;7.50;77.40;;;;;;4112952;28;20041;-82
2022/09/28 00:31:25;;;;;;;6.22;1.48;;;7.40;77.30;;;;;;4129713;28;20026;-82
2022/09/28 00:33:26;;;;;;;5.90;1.60;;;7.40;77.30;;;;;;4113777;28;20027;-82
2022/09/28 00:35:26;;;;;;;2.65;1.20;;;7.50;77.50;;;;;;4122992;28;20058;-82
2022/09/28 00:37:27;;;;;;;2.97;1.30;;;7.40;77.50;;;;;;4117057;28;20577;-82
2022/09/28 00:39:30;;;;;;;5.78;1.45;;;7.40;77.70;;;;;;4102296;28;20038;-82
2022/09/28 00:41:31;;;;;;;;;;;7.50;77.90;;;;;;4118554;28;20452;-82
2022/09/28 00:43:31;;;;;;;4.28;1.27;;;7.50;78.40;;;;;;4118148;28;19917;-82
2022/09/28 00:45:32;;;;;;;1.50;1.00;;;7.40;77.80;;;;;;4117273;28;20031;-83
2022/09/28 00:47:49;;;;;;;4.10;1.05;;;7.50;77.90;;;;;;4116731;28;20488;-82
2022/09/28 00:50:01;;;;;;;2.97;1.30;;;7.40;78.00;;;;;;4117972;28;20537;-82
2022/09/28 00:52:05;;;;;;;6.07;1.30;;;7.40;78.00;;;;;;4118687;28;20124;-82
2022/09/28 00:54:07;;;;;;;2.72;1.40;;;7.40;78.00;;;;;;4119032;28;20554;-82
2022/09/28 00:56:17;;;;;;;2.83;1.23;;;7.30;78.00;;;;;;4117466;28;20556;-82
2022/09/28 00:58:26;;;;;;;2.47;1.40;;;7.30;78.10;;;;;;4098984;29;20134;-82
2022/09/28 01:00:27;;;;;;;2.35;1.35;;;7.40;78.30;;;;;;4101179;28;20103;-82
2022/09/28 01:02:27;;;;;;;2.97;1.30;;;7.40;78.40;;;;;;4116225;28;20085;-82
2022/09/28 01:04:29;;;;;;;2.83;1.38;;;7.30;78.20;;;;;;4119449;28;20039;-82
2022/09/28 01:06:33;;;;;;;2.55;1.15;;;7.30;78.30;;;;;;4121498;28;20098;-83
2022/09/28 01:08:34;;;;;;;;;;;7.30;78.30;;;;;;4123857;28;20042;-82
2022/09/28 01:10:35;;;;;;;2.60;1.02;;;7.30;78.80;;;;;;4103827;29;19914;-82
2022/09/28 01:12:36;;;;;;;2.55;1.05;;;7.40;78.40;;;;;;4121291;28;20054;-83
2022/09/28 01:14:38;;;;;;;2.53;1.30;;;7.40;78.40;;;;;;4119122;28;20038;-82
2022/09/28 01:17:11;;;;;;;4.73;1.20;;;7.30;78.30;;;;;;4118965;28;20030;-82
2022/09/28 01:19:44;;;;;;;1.65;1.08;;;7.40;78.60;;;;;;4057358;29;20787;-82
2022/09/28 01:22:10;;;;;;;2.55;1.30;;;7.30;78.40;;;;;;4070465;29;20100;-82
2022/09/28 01:24:36;;;;;;;5.78;1.30;;;7.30;78.40;;;;;;4039993;29;20639;-82
2022/09/28 01:26:55;;;;;;;2.95;1.10;;;7.30;78.30;;;;;;4054949;29;20032;-82
2022/09/28 01:29:05;;;;;;;4.80;1.20;;;7.40;78.50;;;;;;4042083;29;20099;-82
2022/09/28 01:31:13;;;;;;;3.95;1.48;;;7.30;78.30;;;;;;4036367;29;20033;-82
2022/09/28 01:33:23;;;;;;;1.77;1.00;;;7.30;78.30;;;;;;4053593;29;20028;-82
2022/09/28 01:36:04;;;;;;;2.28;1.20;;;7.30;78.30;;;;;;4054901;29;20383;-82
2022/09/28 01:38:13;;;;;;;2.33;1.30;;;7.30;78.40;;;;;;4049013;29;20403;-82
2022/09/28 01:40:15;;;;;;;3.60;1.33;;;7.30;78.30;;;;;;4052643;29;20466;-82
2022/09/28 01:42:22;;;;;;;3.03;1.05;;;7.30;78.20;;;;;;4052677;29;21015;-82
2022/09/28 01:44:26;;;;;;;6.45;1.65;;;7.30;78.20;;;;;;4051888;29;20032;-82
2022/09/28 01:46:32;;;;;;;4.60;1.63;;;7.30;78.20;;;;;;4053021;29;20104;-82
2022/09/28 01:48:42;;;;;;;2.85;1.33;;;7.30;78.90;;;;;;4051223;29;20375;-81
2022/09/28 01:50:47;;;;;;;3.28;1.50;;;7.30;78.20;;;;;;4053769;29;20035;-82
2022/09/28 01:52:53;;;;;;;3.60;1.60;;;7.30;78.20;;;;;;4053594;29;20088;-82
2022/09/28 01:55:01;;;;;;;4.45;1.60;;;7.30;78.20;;;;;;4088193;28;20445;-82
2022/09/28 01:57:11;;;;;;;3.80;2.08;;;7.20;78.10;;;;;;4114429;28;20457;-82
2022/09/28 01:59:15;;;;;;;6.13;1.70;;;7.30;78.20;;;;;;4113552;28;20441;-82
2022/09/28 02:01:28;;;;;;;2.72;1.40;;;7.20;78.10;;;;;;4114578;28;20046;-81
2022/09/28 02:03:38;;;;;;;6.60;1.48;;;7.20;78.10;;;;;;4113025;28;20043;-82
2022/09/28 02:05:44;;;;;;;7.63;1.33;;;7.20;78.10;;;;;;4092441;28;20408;-82
2022/09/28 02:08:04;;;;;;;2.90;1.48;;;7.20;78.10;;;;;;4111940;28;20435;-82
2022/09/28 02:10:09;;;;;;;4.20;1.80;;;7.20;78.10;;;;;;4110543;28;20117;-81
2022/09/28 02:12:45;;;;;;;6.15;1.73;;;7.20;78.00;;;;;;4112153;28;20460;-82
2022/09/28 02:14:48;;;;;;;5.47;1.73;;;7.10;78.70;;;;;;4050312;29;20477;-82
2022/09/28 02:16:53;;;;;;;3.00;1.67;;;7.20;78.00;;;;;;4053673;29;20041;-82
2022/09/28 02:18:53;;;;;;;1.70;1.33;;;7.20;78.00;;;;;;4053541;29;20041;-82
2022/09/28 02:21:06;;;;;;;3.15;1.70;;;7.10;78.00;;;;;;4057741;29;20047;-82
2022/09/28 02:23:07;;;;;;;2.58;1.60;;;7.10;78.00;;;;;;4035605;29;20040;-82
2022/09/28 02:25:26;;;;;;;2.90;1.55;;;7.10;78.00;;;;;;4052956;29;20123;-82
2022/09/28 02:28:15;;;;;;;4.55;1.40;;;7.10;78.10;;;;;;4038480;29;20181;-82
2022/09/28 02:30:16;;;;;;;4.15;1.50;;;7.10;78.10;;;;;;4039722;29;20596;-82
2022/09/28 02:32:19;;;;;;;6.07;1.65;;;7.10;78.10;;;;;;4038398;29;20452;-82
2022/09/28 02:34:19;;;;;;;3.35;2.03;;;7.10;78.10;;;;;;4039163;29;20040;-82
2022/09/28 02:36:21;;;;;;;1.98;1.50;;;7.10;78.20;;;;;;4036459;29;20040;-82
2022/09/28 02:38:21;;;;;;;2.05;1.50;;;7.10;78.20;;;;;;4022260;29;20038;-82
2022/09/28 02:40:27;;;;;;;4.18;1.85;;;7.10;78.20;;;;;;4037882;29;20301;-83
2022/09/28 02:42:45;;;;;;;3.47;1.60;;;7.10;78.30;;;;;;4039170;29;20790;-82
2022/09/28 02:45:01;;;;;;;2.78;1.73;;;7.10;78.30;;;;;;4038784;29;20124;-82
2022/09/28 02:47:39;;;;;;;5.38;1.92;;;7.10;78.30;;;;;;4022527;29;20389;-82
2022/09/28 02:49:49;;;;;;;2.60;1.60;;;7.10;78.40;;;;;;4038406;29;20538;-82
2022/09/28 02:52:07;;;;;;;2.20;1.55;;;7.10;78.30;;;;;;4051976;29;20495;-82
2022/09/28 02:54:46;;;;;;;5.43;1.70;;;7.10;78.30;;;;;;4050983;29;20041;-82
2022/09/28 02:57:12;;;;;;;8.13;1.65;;;7.10;78.40;;;;;;4005343;29;20094;-82
2022/09/28 02:59:49;;;;;;;2.00;1.30;;;7.10;78.20;;;;;;3996670;29;20042;-82
2022/09/28 03:01:56;;;;;;;2.20;1.42;;;7.10;78.20;;;;;;4007824;29;20038;-83
2022/09/28 03:04:06;;;;;;;2.15;1.40;;;7.10;78.10;;;;;;4008648;29;20400;-82
2022/09/28 03:06:20;;;;;;;3.95;1.60;;;7.20;78.20;;;;;;4007908;29;20412;-82
2022/09/28 03:08:23;;;;;;;5.90;1.90;;;7.00;78.00;;;;;;4040546;29;20115;-82
2022/09/28 03:10:29;;;;;;;3.55;1.48;;;7.10;78.00;;;;;;4037566;29;20469;-83
2022/09/28 03:12:32;;;;;;;2.70;1.83;;;7.00;77.90;;;;;;4040243;29;20483;-82
2022/09/28 03:14:32;;;;;;;5.15;1.70;;;7.00;77.90;;;;;;4043533;29;20033;-82
2022/09/28 03:16:33;;;;;;;2.80;1.35;;;7.00;77.90;;;;;;4039374;29;20037;-82
2022/09/28 03:18:33;;;;;;;3.92;1.75;;;7.10;78.00;;;;;;4038074;29;20033;-82
2022/09/28 03:20:37;;;;;;;2.55;1.50;;;7.00;78.40;;;;;;4040324;29;20037;-82
2022/09/28 03:22:38;;;;;;;2.30;1.67;;;7.00;78.00;;;;;;4040497;29;20188;-82
2022/09/28 03:24:38;;;;;;;2.65;1.75;;;6.90;77.90;;;;;;4023793;29;20110;-83
2022/09/28 03:26:39;;;;;;;2.97;1.83;;;6.90;78.00;;;;;;4043993;29;20040;-83
2022/09/28 03:28:40;;;;;;;2.70;1.70;;;6.90;78.00;;;;;;4039053;29;20040;-82
2022/09/28 03:30:41;;;;;;;3.55;1.90;;;6.90;78.00;;;;;;4019971;29;20034;-82
2022/09/28 03:32:42;;;;;;;2.47;1.45;;;6.90;78.00;;;;;;4087150;28;20033;-84
2022/09/28 03:34:42;;;;;;;2.90;1.52;;;6.90;78.10;;;;;;4119606;28;20055;-82
2022/09/28 03:36:43;;;;;;;4.57;1.77;;;6.90;78.20;;;;;;4118148;28;20062;-82
2022/09/28 03:38:44;;;;;;;4.32;1.70;;;7.00;78.20;;;;;;4116991;28;20109;-83
2022/09/28 03:40:55;;;;;;;5.47;1.92;;;6.90;78.10;;;;;;4095803;28;20082;-82
2022/09/28 03:42:56;;;;;;;4.47;1.63;;;6.90;78.00;;;;;;4118889;28;20038;-83
2022/09/28 03:44:57;;;;;;;3.55;1.95;;;6.90;78.00;;;;;;4118812;28;20062;-83
2022/09/28 03:46:57;;;;;;;6.50;1.77;;;6.90;77.90;;;;;;4118769;28;20045;-82
2022/09/28 03:48:58;;;;;;;9.35;2.10;;;6.90;77.80;;;;;;4120207;28;20046;-83
2022/09/28 03:51:01;;;;;;;2.85;1.85;;;7.00;77.90;;;;;;4100689;28;20036;-82
2022/09/28 03:53:03;;;;;;;3.45;2.03;;;6.90;77.80;;;;;;4105987;28;20344;-83
2022/09/28 03:55:04;;;;;;;3.80;2.17;;;6.80;77.70;;;;;;4117691;28;21693;-83
2022/09/28 03:57:04;;;;;;;3.03;1.70;;;6.80;77.60;;;;;;4103277;29;20039;-83
2022/09/28 03:59:05;;;;;;;5.35;2.28;;;6.80;77.70;;;;;;4103028;29;20041;-83
2022/09/28 04:01:11;;;;;;;3.92;2.60;;;6.80;77.80;;;;;;4102513;29;20039;-83
2022/09/28 04:03:11;;;;;;;5.00;3.00;;;6.80;77.90;;;;;;4101907;28;20053;-83
2022/09/28 04:05:12;;;;;;;8.73;3.15;;;6.80;78.00;;;;;;4116098;28;20155;-83
2022/09/28 04:07:13;;;;;;;24.30;3.22;;;6.80;78.10;;;;;;4116276;28;20062;-82
2022/09/28 04:09:13;;;;;;;15.65;2.83;;;6.80;78.20;;;;;;4117285;28;20031;-83
2022/09/28 04:11:14;;;;;;;39.70;2.88;;;6.80;78.30;;;;;;4099824;28;20131;-82
2022/09/28 04:13:15;;;;;;;13.43;2.67;;;6.80;78.40;;;;;;4115990;28;20023;-82
2022/09/28 04:15:15;;;;;;;12.82;2.40;;;6.80;78.50;;;;;;4113108;28;20054;-82
2022/09/28 04:17:16;;;;;;;25.45;2.80;;;6.90;78.70;;;;;;4117523;28;20041;-83
2022/09/28 04:19:17;;;;;;;23.50;2.45;;;6.80;78.70;;;;;;4097048;28;20031;-83
2022/09/28 04:21:19;;;;;;;10.35;2.05;;;6.90;78.80;;;;;;4113462;28;20031;-83
2022/09/28 04:23:20;;;;;;;10.23;1.88;;;6.90;78.80;;;;;;4117950;28;20578;-82
2022/09/28 04:25:20;;;;;;;4.65;2.00;;;6.90;79.00;;;;;;4116264;28;20034;-83
2022/09/28 04:29:42;;;;;;;6.18;1.80;;;6.90;79.10;;;;;;4120290;28;20099;-82
2022/09/28 04:31:48;;;;;;;13.35;2.13;;;7.00;79.10;;;;;;4118315;28;20094;-83
2022/09/28 04:33:49;;;;;;;6.43;2.08;;;7.00;79.10;;;;;;4116489;28;20093;-83
2022/09/28 04:35:49;;;;;;;9.63;2.20;;;7.00;79.10;;;;;;4107055;28;20031;-83
2022/09/28 04:37:50;;;;;;;11.52;1.90;;;7.00;79.10;;;;;;4117698;28;20042;-83
2022/09/28 04:39:51;;;;;;;3.13;1.90;;;7.00;79.10;;;;;;4117881;28;20032;-82
2022/09/28 04:41:51;;;;;;;22.48;2.35;;;7.10;79.10;;;;;;4117210;28;20867;-82
2022/09/28 04:43:52;;;;;;;8.23;1.90;;;7.10;79.20;;;;;;4122179;28;20026;-83
2022/09/28 04:46:00;;;;;;;7.53;2.13;;;7.10;79.20;;;;;;4121974;28;20091;-83
2022/09/28 04:48:01;;;;;;;22.10;2.58;;;7.10;79.20;;;;;;4100405;28;20051;-83
2022/09/28 04:50:02;;;;;;;28.17;2.13;;;7.30;79.40;;;;;;4120550;28;20061;-83
2022/09/28 04:52:03;;;;;;;5.88;1.98;;;7.20;79.30;;;;;;4114480;28;20043;-83
2022/09/28 04:54:04;;;;;;;6.28;2.00;;;7.10;79.20;;;;;;4115888;28;20441;-83
2022/09/28 04:56:09;;;;;;;5.93;1.77;;;7.20;79.20;;;;;;4114469;28;20038;-83
2022/09/28 04:58:09;;;;;;;6.15;1.83;;;7.20;79.20;;;;;;4100353;28;20031;-83
2022/09/28 05:00:10;;;;;;;19.77;3.22;;;7.20;79.20;;;;;;4121176;28;20045;-82
2022/09/28 05:02:13;;;;;;;21.98;2.35;;;7.20;79.20;;;;;;4103099;28;20054;-81
2022/09/28 05:04:14;;;;;;;12.18;2.25;;;7.20;79.20;;;;;;4121624;28;20030;-80
2022/09/28 05:06:15;;;;;;;5.75;1.65;;;7.30;79.30;;;;;;4118368;28;20039;-81
2022/09/28 05:08:17;;;;;;;8.55;1.83;;;7.20;79.20;;;;;;4123092;28;20066;-82
2022/09/28 05:10:18;;;;;;;14.15;2.00;;;7.30;79.30;;;;;;4119692;28;20706;-82
2022/09/28 05:12:19;;;;;;;6.55;1.90;;;7.20;79.20;;;;;;4105346;28;20031;-82
2022/09/28 05:14:23;;;;;;;12.07;2.40;;;7.30;79.30;;;;;;4122571;28;20082;-82
2022/09/28 05:16:25;;;;;;;10.85;2.33;;;7.30;79.20;;;;;;4119975;28;20051;-82
2022/09/28 05:18:25;;;;;;;12.82;2.55;;;7.30;79.20;;;;;;4108051;28;20050;-81
2022/09/28 05:20:26;;;;;;;18.73;2.35;;;7.30;79.20;;;;;;4101484;28;20031;-82
2022/09/28 05:22:27;;;;;;;15.32;2.50;;;7.30;79.10;;;;;;4118407;28;20063;-83
2022/09/28 05:24:27;;;;;;;26.50;3.45;;;7.30;79.10;;;;;;4106286;28;20031;-82
2022/09/28 05:26:29;;;;;;;9.18;2.53;;;7.30;79.10;;;;;;4112656;29;20045;-82
2022/09/28 05:28:31;;;;;;;13.43;2.30;;;7.40;79.10;;;;;;4118575;28;20022;-83
2022/09/28 05:30:33;;;;;;;12.20;2.57;;;7.30;78.90;;;;;;4096989;28;20082;-82
2022/09/28 05:32:38;;;;;;;10.55;2.25;;;7.40;79.00;;;;;;4110554;28;20032;-83
2022/09/28 05:34:38;;;;;;;8.60;1.90;;;7.30;78.90;;;;;;4124299;28;20034;-83
2022/09/28 05:36:41;;;;;;;18.15;2.30;;;7.30;79.00;;;;;;4125581;28;20037;-83
2022/09/28 05:38:42;;;;;;;50.58;3.50;;;7.30;79.10;;;;;;4121644;28;20177;-83
2022/09/28 05:40:42;;;;;;;19.77;2.20;;;7.30;79.10;;;;;;4119517;28;20050;-82
2022/09/28 05:42:43;;;;;;;20.48;2.40;;;7.40;79.10;;;;;;4124537;28;20031;-83
2022/09/28 05:44:44;;;;;;;27.05;2.75;;;7.30;79.00;;;;;;4125018;28;20053;-83
2022/09/28 05:46:45;;;;;;;19.83;2.28;;;7.20;79.00;;;;;;4124251;28;20058;-83
2022/09/28 05:48:45;;;;;;;7.43;1.58;;;7.30;79.10;;;;;;4122571;28;20132;-83
2022/09/28 05:50:51;;;;;;;7.07;1.98;;;7.30;79.10;;;;;;4106622;28;20024;-83
2022/09/28 05:53:06;;;;;;;26.27;2.20;;;7.30;79.20;;;;;;4110841;28;20023;-83
2022/09/28 05:55:07;;;;;;;23.80;2.25;;;7.30;79.30;;;;;;4117890;28;20023;-84
2022/09/28 05:57:08;;;;;;;14.63;1.90;;;7.30;79.30;;;;;;4129625;28;20034;-83
2022/09/28 05:59:09;;;;;;;33.22;2.67;;;7.30;79.30;;;;;;4109789;28;20055;-82
2022/09/28 06:01:09;;;;;;;15.18;2.10;;;7.40;79.40;;;;;;4128197;28;20031;-83
2022/09/28 06:03:13;;;;;;;21.25;2.00;;;7.30;79.30;;;;;;4128035;28;20143;-83
2022/09/28 06:05:13;;;;;;;19.90;1.95;;;7.30;79.30;;;;;;4128442;28;20054;-83
2022/09/28 06:07:14;;;;;;;21.42;2.10;;;7.30;79.40;;;;;;4128855;28;20039;-83
2022/09/28 06:09:14;;;;;;;53.95;2.50;;;7.30;79.30;;;;;;4126969;28;20102;-82
2022/09/28 06:11:15;;;;;;;15.55;2.20;;;7.50;79.50;;;;;;4117241;28;20023;-82
2022/09/28 06:13:16;;;;;;;18.00;2.17;;;7.40;79.40;;;;;;4125840;28;20027;-83
2022/09/28 06:15:16;;;;;;;23.88;2.67;;;7.30;79.40;;;;;;4127134;28;20035;-82
2022/09/28 06:17:17;;;;;;;10.65;2.15;;;7.50;79.60;;;;;;4126840;28;20038;-82
2022/09/28 06:19:17;;;;;;;5.93;2.05;;;7.40;79.50;;;;;;4128159;28;20393;-82
2022/09/28 06:21:18;;;;;;;34.53;2.53;;;7.40;79.60;;;;;;4126879;28;20031;-83
2022/09/28 06:23:19;;;;;;;17.70;2.25;;;7.40;79.60;;;;;;4110673;28;20035;-82
2022/09/28 06:25:21;;;;;;;28.52;2.50;;;7.40;79.60;;;;;;4111519;28;20046;-82
2022/09/28 06:27:22;;;;;;;35.85;2.65;;;7.50;79.60;;;;;;4133254;23;20228;-81
2022/09/28 06:29:22;;;;;;;73.20;3.25;;;7.40;79.60;;;;;;4137574;28;20034;-84
2022/09/28 06:31:23;;;;;;;25.73;2.78;;;7.50;79.70;;;;;;4137217;28;20425;-83
2022/09/28 06:33:25;;;;;;;17.77;2.50;;;7.60;79.80;;;;;;4122911;28;20031;-81
2022/09/28 06:35:28;;;;;;;18.98;2.50;;;7.50;79.80;;;;;;4135882;28;20049;-81
2022/09/28 06:37:31;;;;;;;22.58;2.67;;;7.60;80.00;;;;;;4138816;28;20033;-81
2022/09/28 06:39:32;;;;;;;;;;;7.60;80.00;;;;;;4119799;28;20133;-83
2022/09/28 06:41:32;;;;;;;18.00;2.95;;;7.60;80.50;;;;;;4138407;28;19910;-84
2022/09/28 06:43:34;;;;;;;12.02;2.90;;;7.60;79.90;;;;;;4140813;28;20041;-83
2022/09/28 06:45:35;;;;;;;14.60;3.30;;;7.60;79.90;;;;;;4140334;28;20034;-83
2022/09/28 06:47:36;;;;;;;18.63;3.35;;;7.60;80.00;;;;;;4133713;28;20098;-83
2022/09/28 06:49:37;;;;;;;19.10;3.38;;;7.60;80.10;;;;;;4124186;28;20030;-84
2022/09/28 06:51:37;;;;;;;38.95;3.60;;;7.70;80.30;;;;;;4138927;28;20037;-84
2022/09/28 06:53:38;;;;;;;10.85;2.95;;;7.80;80.50;;;;;;4138274;28;20053;-84
2022/09/28 06:55:41;;;;;;;13.18;3.38;;;7.80;80.50;;;;;;4138528;28;20037;-83
2022/09/28 06:57:41;;;;;;;28.00;3.83;;;7.80;80.60;;;;;;4137790;28;20161;-83
2022/09/28 06:59:42;;;;;;;15.65;3.08;;;7.80;80.60;;;;;;4137137;28;20070;-84
2022/09/28 07:01:43;;;;;;;25.52;3.80;;;7.90;80.60;;;;;;4139396;28;20049;-83
2022/09/28 07:03:43;;;;;;;45.47;4.25;;;8.00;80.60;;;;;;4138419;28;20043;-84
2022/09/28 07:05:47;;;;;;;14.10;3.45;;;7.90;80.50;;;;;;4141943;28;20154;-81
2022/09/28 07:07:48;;;;;;;13.88;3.25;;;7.90;80.60;;;;;;4139102;28;20026;-82
2022/09/28 07:09:53;;;;;;;30.08;3.80;;;8.00;80.50;;;;;;4142159;28;20075;-83
2022/09/28 07:11:54;;;;;;;13.57;3.65;;;8.00;80.50;;;;;;4128326;28;20034;-84
2022/09/28 07:13:55;;;;;;;20.98;3.85;;;8.00;80.50;;;;;;4137423;28;20022;-84
2022/09/28 07:15:56;;;;;;;10.35;3.30;;;8.10;80.60;;;;;;4121737;28;20027;-84
2022/09/28 07:17:58;;;;;;;20.15;3.95;;;8.00;80.50;;;;;;4140145;28;20026;-83
2022/09/28 07:19:59;;;;;;;5.82;3.75;;;8.20;80.70;;;;;;4138522;28;20028;-83
2022/09/28 07:22:00;;;;;;;33.70;4.68;;;8.10;80.80;;;;;;4135035;28;20030;-83
2022/09/28 07:24:01;;;;;;;79.68;5.15;;;8.20;80.90;;;;;;4121200;28;20097;-84
2022/09/28 07:26:05;;;;;;;20.92;4.22;;;8.20;81.00;;;;;;4122143;28;20537;-83
2022/09/28 07:28:06;;;;;;;16.52;3.80;;;8.20;81.00;;;;;;4128443;28;20098;-82
2022/09/28 07:30:07;;;;;;;23.15;4.35;;;8.20;81.00;;;;;;4141894;28;20018;-81
2022/09/28 07:32:07;;;;;;;14.35;3.70;;;8.30;81.10;;;;;;4121416;28;20023;-82
2022/09/28 07:34:08;;;;;;;20.02;3.85;;;8.30;81.10;;;;;;4138121;28;20037;-82
2022/09/28 07:36:09;;;;;;;16.23;4.13;;;8.50;81.20;;;;;;4111746;28;20066;-81
2022/09/28 07:38:10;;;;;;;27.38;4.10;;;8.40;81.20;;;;;;4134614;28;20125;-81
2022/09/28 07:42:30;;;;;;;18.10;4.55;;;8.40;81.00;;;;;;4137273;28;20026;-81
2022/09/28 07:44:32;;;;;;;24.75;4.47;;;8.60;81.20;;;;;;4137445;28;20085;-81
2022/09/28 07:46:34;;;;;;;10.70;4.32;;;8.60;81.30;;;;;;4136996;28;20018;-83
2022/09/28 07:48:35;;;;;;;26.23;3.85;;;8.60;81.40;;;;;;4137505;28;20034;-82
2022/09/28 07:50:36;;;;;;;18.55;4.32;;;8.70;81.40;;;;;;4135136;28;20036;-82
2022/09/28 07:52:36;;;;;;;41.85;5.78;;;8.70;81.40;;;;;;4136876;28;20031;-81
2022/09/28 07:54:38;;;;;;;14.20;4.32;;;8.70;81.40;;;;;;4132268;28;20037;-84
2022/09/28 07:56:38;;;;;;;15.88;4.40;;;8.80;81.50;;;;;;4133136;28;20037;-84
2022/09/28 07:58:39;;;;;;;8.65;4.22;;;8.80;81.50;;;;;;4139059;28;20034;-83
2022/09/28 08:00:40;;;;;;;19.13;4.30;;;8.80;81.40;;;;;;4138934;28;20519;-83
2022/09/28 08:02:41;;;;;;;24.88;4.22;;;8.90;81.40;;;;;;4120654;28;20031;-83
2022/09/28 08:04:41;;;;;;;22.10;4.78;;;8.90;81.40;;;;;;4123944;28;20050;-82
2022/09/28 08:06:42;;;;;;;30.73;5.38;;;9.00;81.40;;;;;;4136103;28;20026;-82
2022/09/28 08:08:43;;;;;;;23.52;5.15;;;8.90;81.40;;;;;;4137078;28;20030;-82
2022/09/28 08:10:44;;;;;;;20.35;5.50;;;9.10;81.50;;;;;;4136671;28;20073;-82
2022/09/28 08:12:46;;;;;;;8.05;5.15;;;9.00;81.40;;;;;;4137597;28;20030;-83
2022/09/28 08:14:48;;;;;;;29.60;6.07;;;9.10;81.50;;;;;;4117885;28;20035;-82
2022/09/28 08:16:48;;;;;;;12.18;5.72;;;9.10;81.40;;;;;;4135642;28;20026;-82
2022/09/28 08:18:49;;;;;;;13.32;6.13;;;9.00;81.30;;;;;;4132855;28;20034;-82
2022/09/28 08:23:12;;;;;;;12.57;6.28;;;9.10;81.50;;;;;;4133464;28;20043;-82
2022/09/28 08:25:13;;;;;;;14.98;6.18;;;9.20;81.70;;;;;;4102980;29;20036;-82
2022/09/28 08:27:17;;;;;;;12.32;6.18;;;9.20;81.80;;;;;;4135926;28;20038;-83
2022/09/28 08:29:18;;;;;;;22.70;6.97;;;9.20;81.90;;;;;;4137590;28;20034;-83
2022/09/28 08:31:19;;;;;;;39.63;7.30;;;9.40;82.10;;;;;;4137371;28;20026;-82
2022/09/28 08:33:20;;;;;;;20.00;6.72;;;9.30;81.90;;;;;;4137059;28;20042;-83
2022/09/28 08:35:21;;;;;;;19.60;7.22;;;9.40;81.90;;;;;;4117939;28;20031;-83
2022/09/28 08:37:21;;;;;;;21.38;6.55;;;9.40;81.80;;;;;;4119904;28;20118;-83
2022/09/28 08:39:22;;;;;;;11.45;6.80;;;9.60;81.80;;;;;;4137592;28;20062;-82
2022/09/28 08:41:44;;;;;;;11.77;6.95;;;9.50;81.70;;;;;;4136179;28;20046;-83
2022/09/28 08:44:13;;;;;;;14.32;6.43;;;9.50;81.70;;;;;;4136161;28;20027;-83
2022/09/28 08:46:18;;;;;;;62.90;8.18;;;9.60;81.90;;;;;;4136907;28;20049;-83
2022/09/28 08:48:42;;;;;;;11.30;7.13;;;9.70;82.10;;;;;;4137320;28;20030;-83
2022/09/28 08:50:56;;;;;;;14.63;7.68;;;9.80;82.30;;;;;;4137138;28;20026;-83
2022/09/28 08:53:14;;;;;;;13.85;8.15;;;9.80;82.50;;;;;;4136724;28;20105;-84
2022/09/28 08:55:32;;;;;;;13.50;8.07;;;9.90;83.30;;;;;;4135168;28;20041;-82
2022/09/28 08:57:44;;;;;;;13.35;7.72;;;10.00;82.40;;;;;;4133810;28;20095;-82
2022/09/28 08:59:50;;;;;;;14.18;8.05;;;10.00;82.30;;;;;;4119420;28;20029;-82
2022/09/28 09:02:02;;;;;;;14.98;8.40;;;10.10;82.30;;;;;;4121310;28;20033;-83
2022/09/28 09:04:05;;;;;;;16.08;8.07;;;10.30;82.30;;;;;;4138049;28;20035;-83
2022/09/28 09:06:39;;;;;;;13.88;8.52;;;10.20;82.30;;;;;;4134324;28;20034;-83
2022/09/28 09:09:01;;;;;;;15.07;8.85;;;10.30;82.30;;;;;;4128911;28;20046;-82
2022/09/28 09:11:08;;;;;;;17.40;9.35;;;10.40;82.10;;;;;;4134926;28;20033;-84
2022/09/28 09:13:27;;;;;;;16.15;9.88;;;10.50;81.90;;;;;;4137282;28;20030;-83
2022/09/28 09:15:58;;;;;;;18.60;9.43;;;10.50;81.60;;;;;;4136705;28;20031;-83
2022/09/28 09:18:16;;;;;;;18.13;9.20;;;10.50;81.50;;;;;;4139241;28;20050;-83
2022/09/28 09:20:44;;;;;;;17.15;10.02;;;10.60;81.40;;;;;;4107971;28;20035;-83
2022/09/28 09:22:58;;;;;;;17.30;9.88;;;10.60;81.30;;;;;;4139088;28;20030;-83
2022/09/28 09:25:22;;;;;;;15.75;8.88;;;10.70;81.30;;;;;;4119770;28;20062;-82
2022/09/28 09:27:50;;;;;;;17.75;8.90;;;10.70;81.30;;;;;;4132274;28;20034;-81
2022/09/28 09:30:13;;;;;;;13.57;8.15;;;10.70;81.30;;;;;;4136145;28;20022;-82
2022/09/28 09:32:41;;;;;;;13.25;8.02;;;10.80;81.30;;;;;;4134341;28;20053;-83
2022/09/28 09:35:12;;;;;;;13.52;7.20;;;10.90;81.20;;;;;;4136441;28;20015;-82
2022/09/28 09:37:33;;;;;;;11.07;6.38;;;10.90;80.90;;;;;;4132310;28;20034;-82
2022/09/28 09:40:02;;;;;;;13.38;6.63;;;10.90;80.80;;;;;;4136047;28;20031;-83
2022/09/28 09:42:08;;;;;;;11.70;6.07;;;11.00;81.00;;;;;;4131428;28;20030;-82
2022/09/28 09:44:27;;;;;;;11.90;6.50;;;11.10;81.30;;;;;;4139403;28;20051;-83
2022/09/28 09:46:36;;;;;;;12.23;6.95;;;11.10;81.40;;;;;;4134266;28;20066;-82
2022/09/28 09:48:51;;;;;;;11.32;6.07;;;11.30;81.40;;;;;;4120597;28;20037;-82
2022/09/28 09:51:02;;;;;;;12.38;6.68;;;11.30;81.20;;;;;;4136140;28;20508;-82
2022/09/28 09:53:16;;;;;;;12.50;7.00;;;11.40;81.20;;;;;;4135392;28;20039;-82
2022/09/28 09:55:26;;;;;;;12.20;6.47;;;11.40;81.10;;;;;;4135741;28;20143;-82
2022/09/28 09:57:50;;;;;;;9.57;6.50;;;11.50;81.10;;;;;;4133348;28;20044;-83
2022/09/28 09:59:51;;;;;;;10.65;6.72;;;11.60;80.70;;;;;;4133758;28;20034;-82
2022/09/28 10:01:54;;;;;;;8.98;5.85;;;11.70;80.60;;;;;;4115958;28;20590;-82
2022/09/28 10:03:57;;;;;;;10.52;6.40;;;11.70;80.30;;;;;;4130098;28;20401;-82
2022/09/28 10:06:06;;;;;;;12.55;6.57;;;11.90;79.80;;;;;;4129394;28;20041;-83
2022/09/28 10:08:07;;;;;;;10.95;6.38;;;11.80;79.00;;;;;;4130809;28;20092;-82
2022/09/28 10:10:18;;;;;;;11.30;6.38;;;11.90;78.70;;;;;;4136130;28;20382;-83
2022/09/28 10:12:20;;;;;;;11.73;5.53;;;11.90;77.90;;;;;;4133560;28;20026;-82
2022/09/28 10:14:23;;;;;;;10.30;5.03;;;12.00;77.60;;;;;;4133462;28;20045;-82
2022/09/28 10:16:24;;;;;;;9.93;5.90;;;11.90;77.50;;;;;;4134613;28;20396;-82
2022/09/28 10:18:26;;;;;;;10.35;5.68;;;11.90;77.40;;;;;;4135288;28;20026;-82
2022/09/28 10:20:30;;;;;;;14.52;6.47;;;12.00;77.60;;;;;;4112408;28;20162;-82
2022/09/28 10:22:31;;;;;;;11.05;6.38;;;12.00;77.60;;;;;;4116286;28;20070;-82
2022/09/28 10:24:40;;;;;;;12.93;6.55;;;12.10;77.40;;;;;;4113532;28;20098;-82
2022/09/28 10:26:46;;;;;;;10.70;5.85;;;12.10;76.80;;;;;;4132259;28;20045;-82
2022/09/28 10:29:03;;;;;;;8.35;5.53;;;12.20;76.80;;;;;;4117869;28;20038;-82
2022/09/28 10:31:33;;;;;;;9.18;5.82;;;12.30;76.40;;;;;;4117071;28;20023;-81
2022/09/28 10:33:33;;;;;;;9.77;5.45;;;12.30;76.20;;;;;;4134111;28;20035;-82
2022/09/28 10:35:42;;;;;;;9.77;5.05;;;12.30;76.50;;;;;;4136393;28;20539;-82
2022/09/28 10:38:06;;;;;;;11.20;4.88;;;12.40;76.50;;;;;;4131010;28;20038;-82
2022/09/28 10:40:37;;;;;;;9.10;5.05;;;12.50;76.50;;;;;;4135497;28;20065;-82
2022/09/28 10:42:38;;;;;;;10.57;5.20;;;12.60;76.00;;;;;;4137492;28;20030;-81
2022/09/28 10:44:49;;;;;;;7.18;3.75;;;12.70;75.90;;;;;;4139807;28;20428;-83
2022/09/28 10:47:02;;;;;;;8.90;4.90;;;12.90;75.30;;;;;;4136537;28;20022;-82
2022/09/28 10:49:11;;;;;;;10.02;4.80;;;13.00;74.90;;;;;;4138864;28;20098;-82
2022/09/28 10:51:12;;;;;;;8.02;4.15;;;13.00;74.90;;;;;;4138050;28;20023;-81
2022/09/28 10:53:19;;;;;;;8.43;4.97;;;13.20;74.60;;;;;;4138446;28;20077;-80
2022/09/28 10:55:19;;;;;;;8.43;4.85;;;13.20;73.90;;;;;;4138832;28;20121;-81
2022/09/28 10:57:47;;;;;;;9.50;4.70;;;13.20;73.60;;;;;;4137655;28;20034;-83
2022/09/28 10:59:47;;;;;;;9.63;4.93;;;13.30;71.80;;;;;;4134818;28;20030;-81
2022/09/28 11:01:55;;;;;;;9.25;4.70;;;13.30;72.10;;;;;;4134329;28;20174;-82
2022/09/28 11:03:59;;;;;;;6.45;4.07;;;13.30;72.40;;;;;;4139126;28;20097;-81
2022/09/28 11:06:04;;;;;;;7.97;4.38;;;13.40;71.90;;;;;;4140101;28;20035;-81